createdAt,value
2022-12-16T00:02:38.615Z,64.62
2022-12-16T00:07:42.252Z,64.76
2022-12-16T00:12:47.058Z,64.58
2022-12-16T00:17:50.183Z,64.89
2022-12-16T00:22:55.444Z,64.69
2022-12-16T00:28:00.619Z,64.65
2022-12-16T00:33:04.225Z,64.28
2022-12-16T00:38:07.725Z,64.78
2022-12-16T00:43:12.969Z,64.09
2022-12-16T00:48:17.332Z,64.74
2022-12-16T00:53:21.314Z,64.41
2022-12-16T00:58:26.090Z,64.32
2022-12-16T01:03:29.201Z,64.40
2022-12-16T01:08:32.539Z,64.17
2022-12-16T01:13:37.482Z,64.15
2022-12-16T01:18:41.000Z,64.91
2022-12-16T01:23:44.391Z,64.50
2022-12-16T01:28:50.682Z,64.91
2022-12-16T01:33:54.323Z,64.72
2022-12-16T01:38:58.338Z,64.16
2022-12-16T01:44:17.402Z,64.05
2022-12-16T01:49:26.108Z,64.29
2022-12-16T01:59:57.169Z,64.24
2022-12-16T02:05:17.915Z,63.98
2022-12-16T02:15:53.499Z,64.09
2022-12-16T02:21:40.274Z,64.14
2022-12-16T02:32:33.300Z,64.30
2022-12-16T02:37:44.195Z,64.30
2022-12-16T02:42:54.059Z,64.45
2022-12-16T02:48:00.178Z,64.48
2022-12-16T02:53:05.820Z,64.24
2022-12-16T02:58:17.833Z,64.17
2022-12-16T03:03:30.998Z,64.28
2022-12-16T03:08:39.310Z,64.41
2022-12-16T03:13:46.568Z,64.66
2022-12-16T03:24:15.779Z,64.60
2022-12-16T03:29:25.954Z,64.21
2022-12-16T03:40:02.783Z,64.06
2022-12-16T03:45:09.582Z,64.03
2022-12-16T03:50:14.466Z,64.29
2022-12-16T03:55:17.885Z,64.07
2022-12-16T04:00:21.643Z,64.21
2022-12-16T04:05:26.574Z,64.07
2022-12-16T04:10:43.880Z,64.74
2022-12-16T04:16:13.151Z,64.18
2022-12-16T04:21:35.337Z,64.25
2022-12-16T04:26:52.573Z,63.56
2022-12-16T04:31:56.315Z,63.77
2022-12-16T04:37:20.855Z,63.81
2022-12-16T04:48:35.403Z,63.35
2022-12-16T04:53:57.563Z,63.26
2022-12-16T05:04:58.761Z,63.21
2022-12-16T05:10:21.191Z,62.66
2022-12-16T05:15:42.082Z,62.44
2022-12-16T05:21:02.639Z,62.66
2022-12-16T05:26:27.116Z,62.40
2022-12-16T05:37:25.799Z,62.14
2022-12-16T05:42:47.828Z,62.08
2022-12-16T05:48:08.469Z,61.82
2022-12-16T05:53:29.524Z,62.07
2022-12-16T05:58:51.510Z,62.06
2022-12-16T06:04:17.226Z,61.95
2022-12-16T06:09:38.741Z,61.59
2022-12-16T06:15:00.914Z,61.43
2022-12-16T06:20:21.588Z,61.13
2022-12-16T06:25:42.508Z,60.60
2022-12-16T06:31:04.819Z,60.65
2022-12-16T06:36:26.304Z,59.95
2022-12-16T06:41:47.468Z,60.21
2022-12-16T06:47:09.838Z,59.84
2022-12-16T06:52:30.634Z,59.98
2022-12-16T06:57:50.694Z,59.83
2022-12-16T07:03:12.849Z,59.78
2022-12-16T07:08:32.874Z,59.46
2022-12-16T07:13:53.509Z,59.53
2022-12-16T07:19:14.999Z,59.01
2022-12-16T07:24:35.794Z,59.10
2022-12-16T07:29:56.534Z,58.50
2022-12-16T07:35:18.823Z,58.54
2022-12-16T07:40:39.739Z,58.57
2022-12-16T07:46:03.214Z,58.59
2022-12-16T07:51:25.487Z,58.42
2022-12-16T07:56:46.328Z,57.97
2022-12-16T08:02:07.147Z,57.87
2022-12-16T08:07:29.634Z,56.66
2022-12-16T08:12:50.212Z,56.58
2022-12-16T08:18:11.776Z,56.68
2022-12-16T08:23:33.449Z,56.28
2022-12-16T08:28:54.633Z,55.95
2022-12-16T08:34:15.254Z,55.68
2022-12-16T08:39:37.838Z,55.17
2022-12-16T08:44:58.451Z,55.25
2022-12-16T08:50:19.246Z,54.64
2022-12-16T08:55:41.487Z,55.01
2022-12-16T09:01:07.045Z,54.94
2022-12-16T09:06:28.822Z,55.09
2022-12-16T09:11:50.854Z,54.66
2022-12-16T09:17:12.383Z,55.22
2022-12-16T09:22:33.165Z,55.21
2022-12-16T09:27:55.205Z,55.36
2022-12-16T09:33:16.886Z,55.28
2022-12-16T09:38:37.713Z,54.68
2022-12-16T09:44:19.758Z,53.97
2022-12-16T09:49:54.665Z,53.59
2022-12-16T09:55:16.229Z,54.52
2022-12-16T10:00:41.554Z,53.94
2022-12-16T10:06:12.721Z,54.29
2022-12-16T10:11:40.357Z,54.29
2022-12-16T10:17:10.962Z,53.34
2022-12-16T10:22:39.691Z,54.59
2022-12-16T10:28:04.277Z,54.40
2022-12-16T10:33:32.637Z,54.02
2022-12-16T10:38:59.331Z,53.95
2022-12-16T10:44:22.775Z,54.16
2022-12-16T10:49:47.454Z,54.09
2022-12-16T10:55:20.894Z,53.86
2022-12-16T11:01:00.775Z,54.28
2022-12-16T11:06:24.050Z,54.47
2022-12-16T11:11:47.843Z,54.47
2022-12-16T11:17:33.376Z,53.20
2022-12-16T11:22:55.742Z,54.14
2022-12-16T11:28:21.967Z,53.63
2022-12-16T11:33:46.746Z,53.77
2022-12-16T11:39:10.939Z,53.68
2022-12-16T11:44:37.427Z,53.75
2022-12-16T11:49:59.634Z,53.67
2022-12-16T11:56:03.219Z,53.81
2022-12-16T12:01:21.384Z,54.28
2022-12-16T12:06:51.180Z,54.41
2022-12-16T12:12:19.242Z,54.19
2022-12-16T12:17:47.770Z,54.89
2022-12-16T12:23:08.356Z,54.75
2022-12-16T12:28:40.044Z,54.65
2022-12-16T12:34:14.943Z,55.06
2022-12-16T12:39:41.047Z,55.38
2022-12-16T12:45:13.612Z,55.54
2022-12-16T12:50:40.478Z,55.89
2022-12-16T12:56:08.786Z,55.57
2022-12-16T13:01:32.267Z,55.46
2022-12-16T13:06:50.929Z,55.44
2022-12-16T13:12:40.846Z,55.23
2022-12-16T13:18:38.655Z,55.64
2022-12-16T13:24:00.791Z,55.71
2022-12-16T13:29:36.544Z,55.62
2022-12-16T13:35:13.420Z,55.48
2022-12-16T13:40:38.065Z,55.53
2022-12-16T13:46:01.147Z,55.52
2022-12-16T13:51:23.467Z,56.17
2022-12-16T13:56:52.091Z,55.78
2022-12-16T14:02:15.883Z,55.90
2022-12-16T14:07:40.829Z,55.73
2022-12-16T14:13:14.712Z,55.94
2022-12-16T14:18:46.692Z,55.92
2022-12-16T14:24:16.159Z,56.18
2022-12-16T14:29:41.385Z,56.07
2022-12-16T14:35:02.258Z,56.33
2022-12-16T14:40:39.256Z,56.59
2022-12-16T14:46:07.917Z,56.95
2022-12-16T14:51:50.815Z,56.78
2022-12-16T14:57:16.414Z,56.47
2022-12-16T15:02:44.788Z,56.53
2022-12-16T15:08:05.750Z,56.75
2022-12-16T15:13:35.416Z,56.19
2022-12-16T15:18:59.687Z,56.57
2022-12-16T15:24:31.827Z,56.58
2022-12-16T15:29:55.581Z,56.07
2022-12-16T15:35:16.439Z,56.56
2022-12-16T15:40:44.134Z,56.72
2022-12-16T15:46:08.979Z,56.79
2022-12-16T15:51:40.704Z,56.91
2022-12-16T15:57:03.714Z,56.92
2022-12-16T16:02:32.745Z,56.66
2022-12-16T16:07:54.602Z,56.58
2022-12-16T16:13:17.678Z,56.30
2022-12-16T16:18:40.019Z,56.01
2022-12-16T16:24:00.687Z,56.27
2022-12-16T16:29:22.115Z,56.99
2022-12-16T16:34:44.010Z,56.93
2022-12-16T16:40:16.069Z,57.30
2022-12-16T16:45:36.693Z,57.13
2022-12-16T16:50:58.887Z,57.24
2022-12-16T16:56:25.446Z,57.10
2022-12-16T17:01:46.293Z,57.39
2022-12-16T17:07:08.580Z,56.64
2022-12-16T17:12:39.399Z,56.70
2022-12-16T17:18:00.123Z,57.66
2022-12-16T17:23:22.417Z,57.03
2022-12-16T17:28:43.000Z,57.15
2022-12-16T17:34:03.682Z,56.98
2022-12-16T17:39:26.181Z,57.22
2022-12-16T17:44:46.819Z,56.84
2022-12-16T17:50:07.501Z,57.39
2022-12-16T17:55:30.108Z,57.29
2022-12-16T18:00:50.963Z,56.83
2022-12-16T18:06:15.346Z,56.72
2022-12-16T18:11:38.931Z,56.22
2022-12-16T18:17:00.076Z,56.64
2022-12-16T18:22:21.338Z,57.81
2022-12-16T18:27:43.708Z,57.69
2022-12-16T18:33:04.400Z,57.15
2022-12-16T18:38:25.042Z,57.19
2022-12-16T18:43:47.476Z,57.37
2022-12-16T18:49:07.960Z,57.17
2022-12-16T18:54:28.601Z,57.41
2022-12-16T18:59:50.885Z,57.29
2022-12-16T19:05:11.706Z,57.32
2022-12-16T19:10:32.579Z,57.17
2022-12-16T19:15:54.890Z,57.69
2022-12-16T19:21:16.168Z,56.68
2022-12-16T19:26:36.644Z,56.88
2022-12-16T19:31:58.911Z,57.27
2022-12-16T19:37:20.078Z,57.22
2022-12-16T19:42:52.122Z,57.27
2022-12-16T19:48:22.903Z,57.23
2022-12-16T19:53:52.047Z,57.40
2022-12-16T19:59:12.734Z,56.93
2022-12-16T20:04:34.826Z,57.02
2022-12-16T20:09:56.191Z,57.41
2022-12-16T20:15:16.946Z,57.91
2022-12-16T20:20:39.427Z,57.59
2022-12-16T20:25:59.898Z,57.24
2022-12-16T20:31:21.095Z,57.08
2022-12-16T20:36:43.257Z,57.43
2022-12-16T20:42:04.289Z,57.81
2022-12-16T20:47:36.558Z,57.88
2022-12-16T20:52:58.938Z,57.75
2022-12-16T20:58:19.564Z,58.08
2022-12-16T21:03:40.441Z,57.75
2022-12-16T21:09:03.166Z,57.33
2022-12-16T21:14:23.778Z,57.33
2022-12-16T21:19:44.528Z,57.88
2022-12-16T21:25:06.632Z,57.93
2022-12-16T21:30:28.545Z,58.18
2022-12-16T21:35:51.986Z,57.46
2022-12-16T21:41:14.264Z,57.03
2022-12-16T21:46:35.114Z,57.17
2022-12-16T21:51:56.333Z,56.92
2022-12-16T21:57:18.491Z,56.54
2022-12-16T22:02:39.403Z,57.25
2022-12-16T22:07:59.969Z,57.86
2022-12-16T22:13:22.386Z,57.59
2022-12-16T22:18:43.426Z,57.69
2022-12-16T22:24:04.037Z,57.55
2022-12-16T22:29:26.319Z,57.74
2022-12-16T22:34:58.404Z,57.36
2022-12-16T22:40:19.131Z,57.97
2022-12-16T22:45:44.529Z,57.89
2022-12-16T22:51:16.523Z,57.47
2022-12-16T22:56:37.147Z,57.87
2022-12-16T23:01:59.316Z,58.00
2022-12-16T23:07:22.272Z,58.04
2022-12-16T23:12:43.254Z,57.47
2022-12-16T23:18:05.273Z,57.88
2022-12-16T23:23:25.944Z,57.66
2022-12-16T23:28:46.481Z,57.59
2022-12-16T23:34:08.875Z,57.32
2022-12-16T23:39:30.905Z,57.60
2022-12-16T23:44:56.332Z,57.50
2022-12-16T23:50:18.693Z,57.59
2022-12-16T23:55:39.133Z,57.59
